sensor_id;sensor_type;location;lat;lon;timestamp;temperature;humidity
9215;DHT22;4642;51.364;6.788;2023-07-16T00:00:11;18.50;99.90
9215;DHT22;4642;51.364;6.788;2023-07-16T00:02:37;18.50;99.90
9215;DHT22;4642;51.364;6.788;2023-07-16T00:05:03;18.50;99.90
9215;DHT22;4642;51.364;6.788;2023-07-16T00:07:29;18.50;99.90
9215;DHT22;4642;51.364;6.788;2023-07-16T00:09:55;18.60;99.90
9215;DHT22;4642;51.364;6.788;2023-07-16T00:12:20;18.50;99.90
9215;DHT22;4642;51.364;6.788;2023-07-16T00:14:47;18.70;99.90
9215;DHT22;4642;51.364;6.788;2023-07-16T00:17:12;18.70;99.90
9215;DHT22;4642;51.364;6.788;2023-07-16T00:19:38;18.50;99.90
9215;DHT22;4642;51.364;6.788;2023-07-16T00:22:03;18.30;99.90
9215;DHT22;4642;51.364;6.788;2023-07-16T00:24:29;18.50;99.90
9215;DHT22;4642;51.364;6.788;2023-07-16T00:26:54;18.60;99.90
9215;DHT22;4642;51.364;6.788;2023-07-16T00:29:20;18.40;99.90
9215;DHT22;4642;51.364;6.788;2023-07-16T00:31:46;18.60;99.90
9215;DHT22;4642;51.364;6.788;2023-07-16T00:34:11;18.40;99.90
9215;DHT22;4642;51.364;6.788;2023-07-16T00:36:38;18.50;99.90
9215;DHT22;4642;51.364;6.788;2023-07-16T00:39:04;18.40;99.90
9215;DHT22;4642;51.364;6.788;2023-07-16T00:41:29;18.00;99.90
9215;DHT22;4642;51.364;6.788;2023-07-16T00:43:55;18.40;99.90
9215;DHT22;4642;51.364;6.788;2023-07-16T00:46:21;18.40;99.90
9215;DHT22;4642;51.364;6.788;2023-07-16T00:48:47;18.40;99.90
9215;DHT22;4642;51.364;6.788;2023-07-16T00:51:12;18.40;99.90
9215;DHT22;4642;51.364;6.788;2023-07-16T00:53:41;18.50;99.90
9215;DHT22;4642;51.364;6.788;2023-07-16T00:56:07;18.30;99.90
9215;DHT22;4642;51.364;6.788;2023-07-16T00:58:34;18.20;99.90
9215;DHT22;4642;51.364;6.788;2023-07-16T01:00:59;18.20;99.90
9215;DHT22;4642;51.364;6.788;2023-07-16T01:03:25;18.30;99.90
9215;DHT22;4642;51.364;6.788;2023-07-16T01:05:59;18.50;99.90
9215;DHT22;4642;51.364;6.788;2023-07-16T01:08:38;18.00;99.90
9215;DHT22;4642;51.364;6.788;2023-07-16T01:11:05;18.20;99.90
9215;DHT22;4642;51.364;6.788;2023-07-16T01:13:31;18.20;99.90
9215;DHT22;4642;51.364;6.788;2023-07-16T01:15:57;18.10;99.90
9215;DHT22;4642;51.364;6.788;2023-07-16T01:18:23;18.70;99.90
9215;DHT22;4642;51.364;6.788;2023-07-16T01:20:48;18.40;99.90
9215;DHT22;4642;51.364;6.788;2023-07-16T01:23:41;18.20;99.90
9215;DHT22;4642;51.364;6.788;2023-07-16T01:26:18;17.90;99.90
9215;DHT22;4642;51.364;6.788;2023-07-16T01:31:33;18.00;99.90
9215;DHT22;4642;51.364;6.788;2023-07-16T01:34:00;18.00;99.90
9215;DHT22;4642;51.364;6.788;2023-07-16T01:36:26;17.90;99.90
9215;DHT22;4642;51.364;6.788;2023-07-16T01:38:53;18.00;99.90
9215;DHT22;4642;51.364;6.788;2023-07-16T01:41:19;17.80;99.90
9215;DHT22;4642;51.364;6.788;2023-07-16T01:43:45;17.90;99.90
9215;DHT22;4642;51.364;6.788;2023-07-16T01:46:11;19.00;99.90
9215;DHT22;4642;51.364;6.788;2023-07-16T01:48:37;17.70;99.90
9215;DHT22;4642;51.364;6.788;2023-07-16T01:51:04;17.90;99.90
9215;DHT22;4642;51.364;6.788;2023-07-16T01:53:30;17.70;99.90
9215;DHT22;4642;51.364;6.788;2023-07-16T01:55:57;17.60;99.90
9215;DHT22;4642;51.364;6.788;2023-07-16T01:58:22;17.50;99.90
9215;DHT22;4642;51.364;6.788;2023-07-16T02:00:49;17.70;99.90
9215;DHT22;4642;51.364;6.788;2023-07-16T02:03:15;17.70;99.90
9215;DHT22;4642;51.364;6.788;2023-07-16T02:05:41;17.70;99.90
9215;DHT22;4642;51.364;6.788;2023-07-16T02:08:06;17.70;99.90
9215;DHT22;4642;51.364;6.788;2023-07-16T02:10:32;17.70;99.90
9215;DHT22;4642;51.364;6.788;2023-07-16T02:12:58;17.60;99.90
9215;DHT22;4642;51.364;6.788;2023-07-16T02:15:23;17.60;99.90
9215;DHT22;4642;51.364;6.788;2023-07-16T02:17:49;17.70;99.90
9215;DHT22;4642;51.364;6.788;2023-07-16T02:20:14;17.70;99.90
9215;DHT22;4642;51.364;6.788;2023-07-16T02:22:40;17.80;99.90
9215;DHT22;4642;51.364;6.788;2023-07-16T02:25:06;17.60;99.90
9215;DHT22;4642;51.364;6.788;2023-07-16T02:27:32;17.70;99.90
9215;DHT22;4642;51.364;6.788;2023-07-16T02:29:57;17.70;99.90
9215;DHT22;4642;51.364;6.788;2023-07-16T02:32:23;17.80;99.90
9215;DHT22;4642;51.364;6.788;2023-07-16T02:34:49;17.60;99.90
9215;DHT22;4642;51.364;6.788;2023-07-16T02:37:15;17.60;99.90
9215;DHT22;4642;51.364;6.788;2023-07-16T02:39:42;17.60;99.90
9215;DHT22;4642;51.364;6.788;2023-07-16T02:42:07;17.60;99.90
9215;DHT22;4642;51.364;6.788;2023-07-16T02:44:34;17.60;99.90
9215;DHT22;4642;51.364;6.788;2023-07-16T02:47:01;17.50;99.90
9215;DHT22;4642;51.364;6.788;2023-07-16T02:49:26;17.60;99.90
9215;DHT22;4642;51.364;6.788;2023-07-16T02:51:52;18.00;99.90
9215;DHT22;4642;51.364;6.788;2023-07-16T02:54:17;17.40;99.90
9215;DHT22;4642;51.364;6.788;2023-07-16T02:56:43;17.50;99.90
9215;DHT22;4642;51.364;6.788;2023-07-16T02:59:08;17.50;99.90
9215;DHT22;4642;51.364;6.788;2023-07-16T03:01:34;17.50;99.90
9215;DHT22;4642;51.364;6.788;2023-07-16T03:04:00;17.40;99.90
9215;DHT22;4642;51.364;6.788;2023-07-16T03:06:25;17.40;99.90
9215;DHT22;4642;51.364;6.788;2023-07-16T03:08:51;17.90;99.90
9215;DHT22;4642;51.364;6.788;2023-07-16T03:11:16;17.40;99.90
9215;DHT22;4642;51.364;6.788;2023-07-16T03:13:42;17.60;99.90
9215;DHT22;4642;51.364;6.788;2023-07-16T03:16:08;17.40;99.90
9215;DHT22;4642;51.364;6.788;2023-07-16T03:18:33;17.30;99.90
9215;DHT22;4642;51.364;6.788;2023-07-16T03:20:59;17.70;99.90
9215;DHT22;4642;51.364;6.788;2023-07-16T03:23:25;17.30;99.90
9215;DHT22;4642;51.364;6.788;2023-07-16T03:25:51;17.30;99.90
9215;DHT22;4642;51.364;6.788;2023-07-16T03:28:17;17.20;99.90
9215;DHT22;4642;51.364;6.788;2023-07-16T03:30:50;17.70;99.90
9215;DHT22;4642;51.364;6.788;2023-07-16T03:33:16;17.20;99.90
9215;DHT22;4642;51.364;6.788;2023-07-16T03:35:43;17.40;99.90
9215;DHT22;4642;51.364;6.788;2023-07-16T03:38:10;17.20;99.90
9215;DHT22;4642;51.364;6.788;2023-07-16T03:40:35;18.40;99.90
9215;DHT22;4642;51.364;6.788;2023-07-16T03:43:01;17.10;99.90
9215;DHT22;4642;51.364;6.788;2023-07-16T03:45:26;17.10;99.90
9215;DHT22;4642;51.364;6.788;2023-07-16T03:47:52;17.30;99.90
9215;DHT22;4642;51.364;6.788;2023-07-16T03:50:17;17.10;99.90
9215;DHT22;4642;51.364;6.788;2023-07-16T03:52:44;17.40;99.90
9215;DHT22;4642;51.364;6.788;2023-07-16T03:55:09;17.40;99.90
9215;DHT22;4642;51.364;6.788;2023-07-16T03:57:35;18.20;99.90
9215;DHT22;4642;51.364;6.788;2023-07-16T04:00:02;17.00;99.90
9215;DHT22;4642;51.364;6.788;2023-07-16T04:02:29;17.00;99.90
9215;DHT22;4642;51.364;6.788;2023-07-16T04:04:55;16.90;99.90
9215;DHT22;4642;51.364;6.788;2023-07-16T04:07:20;16.90;99.90
9215;DHT22;4642;51.364;6.788;2023-07-16T04:09:47;16.80;99.90
9215;DHT22;4642;51.364;6.788;2023-07-16T04:12:12;16.90;99.90
9215;DHT22;4642;51.364;6.788;2023-07-16T04:14:38;16.90;99.90
9215;DHT22;4642;51.364;6.788;2023-07-16T04:17:04;16.80;99.90
9215;DHT22;4642;51.364;6.788;2023-07-16T04:19:29;16.90;99.90
9215;DHT22;4642;51.364;6.788;2023-07-16T04:21:55;17.20;99.90
9215;DHT22;4642;51.364;6.788;2023-07-16T04:24:20;16.90;99.90
9215;DHT22;4642;51.364;6.788;2023-07-16T04:26:46;17.00;99.90
9215;DHT22;4642;51.364;6.788;2023-07-16T04:29:11;16.90;99.90
9215;DHT22;4642;51.364;6.788;2023-07-16T04:31:37;16.80;99.90
9215;DHT22;4642;51.364;6.788;2023-07-16T04:34:03;16.80;99.90
9215;DHT22;4642;51.364;6.788;2023-07-16T04:36:28;16.70;99.90
9215;DHT22;4642;51.364;6.788;2023-07-16T04:38:54;16.90;99.90
9215;DHT22;4642;51.364;6.788;2023-07-16T04:41:19;17.00;99.90
9215;DHT22;4642;51.364;6.788;2023-07-16T04:43:45;16.90;99.90
9215;DHT22;4642;51.364;6.788;2023-07-16T04:46:10;16.80;99.90
9215;DHT22;4642;51.364;6.788;2023-07-16T04:48:37;16.90;99.90
9215;DHT22;4642;51.364;6.788;2023-07-16T04:51:02;16.80;99.90
9215;DHT22;4642;51.364;6.788;2023-07-16T04:53:28;16.80;99.90
9215;DHT22;4642;51.364;6.788;2023-07-16T04:55:54;16.90;99.90
9215;DHT22;4642;51.364;6.788;2023-07-16T04:58:19;17.10;99.90
9215;DHT22;4642;51.364;6.788;2023-07-16T05:00:45;16.90;99.90
9215;DHT22;4642;51.364;6.788;2023-07-16T05:03:11;16.90;99.90
9215;DHT22;4642;51.364;6.788;2023-07-16T05:05:36;16.90;99.90
9215;DHT22;4642;51.364;6.788;2023-07-16T05:08:02;16.90;99.90
9215;DHT22;4642;51.364;6.788;2023-07-16T05:10:28;17.00;99.90
9215;DHT22;4642;51.364;6.788;2023-07-16T05:12:53;16.90;99.90
9215;DHT22;4642;51.364;6.788;2023-07-16T05:15:19;17.00;99.90
9215;DHT22;4642;51.364;6.788;2023-07-16T05:17:45;17.10;99.90
9215;DHT22;4642;51.364;6.788;2023-07-16T05:20:10;17.00;99.90
9215;DHT22;4642;51.364;6.788;2023-07-16T05:22:36;17.00;99.90
9215;DHT22;4642;51.364;6.788;2023-07-16T05:25:02;17.00;99.90
9215;DHT22;4642;51.364;6.788;2023-07-16T05:27:28;17.10;99.90
9215;DHT22;4642;51.364;6.788;2023-07-16T05:29:54;17.90;99.90
9215;DHT22;4642;51.364;6.788;2023-07-16T05:32:19;17.10;99.90
9215;DHT22;4642;51.364;6.788;2023-07-16T05:34:45;17.40;99.90
9215;DHT22;4642;51.364;6.788;2023-07-16T05:37:11;17.40;99.90
9215;DHT22;4642;51.364;6.788;2023-07-16T05:39:37;17.50;99.90
9215;DHT22;4642;51.364;6.788;2023-07-16T05:42:03;17.30;99.90
9215;DHT22;4642;51.364;6.788;2023-07-16T05:44:29;17.40;99.90
9215;DHT22;4642;51.364;6.788;2023-07-16T05:46:54;17.40;93.00
9215;DHT22;4642;51.364;6.788;2023-07-16T05:49:20;17.50;1.00
9215;DHT22;4642;51.364;6.788;2023-07-16T05:51:46;17.40;99.90
9215;DHT22;4642;51.364;6.788;2023-07-16T05:54:11;17.60;99.90
9215;DHT22;4642;51.364;6.788;2023-07-16T05:56:37;17.60;1.00
9215;DHT22;4642;51.364;6.788;2023-07-16T05:59:02;17.50;1.00
9215;DHT22;4642;51.364;6.788;2023-07-16T06:01:28;17.60;80.90
9215;DHT22;4642;51.364;6.788;2023-07-16T06:03:53;17.80;1.00
9215;DHT22;4642;51.364;6.788;2023-07-16T06:06:19;17.70;1.00
9215;DHT22;4642;51.364;6.788;2023-07-16T06:08:45;18.10;1.00
9215;DHT22;4642;51.364;6.788;2023-07-16T06:11:12;17.90;99.90
9215;DHT22;4642;51.364;6.788;2023-07-16T06:13:37;17.80;1.00
9215;DHT22;4642;51.364;6.788;2023-07-16T06:16:03;18.00;99.90
9215;DHT22;4642;51.364;6.788;2023-07-16T06:18:29;17.80;46.80
9215;DHT22;4642;51.364;6.788;2023-07-16T06:20:54;17.90;99.90
9215;DHT22;4642;51.364;6.788;2023-07-16T06:23:20;17.80;24.80
9215;DHT22;4642;51.364;6.788;2023-07-16T06:25:46;17.90;99.90
9215;DHT22;4642;51.364;6.788;2023-07-16T06:28:14;18.10;99.90
9215;DHT22;4642;51.364;6.788;2023-07-16T06:30:40;17.90;95.00
9215;DHT22;4642;51.364;6.788;2023-07-16T06:33:05;17.80;47.30
9215;DHT22;4642;51.364;6.788;2023-07-16T06:35:31;18.20;99.90
9215;DHT22;4642;51.364;6.788;2023-07-16T06:37:56;18.30;79.80
9215;DHT22;4642;51.364;6.788;2023-07-16T06:40:24;17.90;1.00
9215;DHT22;4642;51.364;6.788;2023-07-16T06:42:50;18.30;1.00
9215;DHT22;4642;51.364;6.788;2023-07-16T06:45:17;18.10;1.00
9215;DHT22;4642;51.364;6.788;2023-07-16T06:47:43;18.30;1.00
9215;DHT22;4642;51.364;6.788;2023-07-16T06:50:09;18.20;99.90
9215;DHT22;4642;51.364;6.788;2023-07-16T06:52:34;18.20;1.00
9215;DHT22;4642;51.364;6.788;2023-07-16T06:55:00;18.50;1.00
9215;DHT22;4642;51.364;6.788;2023-07-16T06:57:26;18.20;1.00
9215;DHT22;4642;51.364;6.788;2023-07-16T06:59:51;18.30;57.50
9215;DHT22;4642;51.364;6.788;2023-07-16T07:02:18;18.40;1.00
9215;DHT22;4642;51.364;6.788;2023-07-16T07:04:44;18.40;1.00
9215;DHT22;4642;51.364;6.788;2023-07-16T07:07:10;18.40;99.90
9215;DHT22;4642;51.364;6.788;2023-07-16T07:09:35;18.40;99.90
9215;DHT22;4642;51.364;6.788;2023-07-16T07:12:01;18.50;99.90
9215;DHT22;4642;51.364;6.788;2023-07-16T07:14:26;18.50;1.00
9215;DHT22;4642;51.364;6.788;2023-07-16T07:16:52;18.60;1.00
9215;DHT22;4642;51.364;6.788;2023-07-16T07:19:18;18.90;99.90
9215;DHT22;4642;51.364;6.788;2023-07-16T07:21:43;18.70;99.90
9215;DHT22;4642;51.364;6.788;2023-07-16T07:24:09;19.00;99.90
9215;DHT22;4642;51.364;6.788;2023-07-16T07:26:35;19.00;99.90
9215;DHT22;4642;51.364;6.788;2023-07-16T07:29:00;18.70;64.80
9215;DHT22;4642;51.364;6.788;2023-07-16T07:31:26;19.70;29.10
9215;DHT22;4642;51.364;6.788;2023-07-16T07:33:51;18.90;65.70
9215;DHT22;4642;51.364;6.788;2023-07-16T07:36:19;18.80;99.90
9215;DHT22;4642;51.364;6.788;2023-07-16T07:38:44;19.20;99.90
9215;DHT22;4642;51.364;6.788;2023-07-16T07:41:10;19.30;55.20
9215;DHT22;4642;51.364;6.788;2023-07-16T07:43:36;19.00;99.90
9215;DHT22;4642;51.364;6.788;2023-07-16T07:46:01;19.20;1.00
9215;DHT22;4642;51.364;6.788;2023-07-16T07:48:27;19.20;1.00
9215;DHT22;4642;51.364;6.788;2023-07-16T07:50:52;19.20;1.00
9215;DHT22;4642;51.364;6.788;2023-07-16T07:53:18;19.20;1.00
9215;DHT22;4642;51.364;6.788;2023-07-16T07:55:44;19.30;8.20
9215;DHT22;4642;51.364;6.788;2023-07-16T07:58:10;19.40;1.00
9215;DHT22;4642;51.364;6.788;2023-07-16T08:00:36;19.20;1.00
9215;DHT22;4642;51.364;6.788;2023-07-16T08:03:01;19.20;1.00
9215;DHT22;4642;51.364;6.788;2023-07-16T08:05:27;19.30;1.00
9215;DHT22;4642;51.364;6.788;2023-07-16T08:07:53;19.40;1.00
9215;DHT22;4642;51.364;6.788;2023-07-16T08:10:19;19.40;1.00
9215;DHT22;4642;51.364;6.788;2023-07-16T08:12:44;19.50;1.00
9215;DHT22;4642;51.364;6.788;2023-07-16T08:15:11;19.50;1.00
9215;DHT22;4642;51.364;6.788;2023-07-16T08:17:43;19.60;1.00
9215;DHT22;4642;51.364;6.788;2023-07-16T08:20:10;19.60;99.90
9215;DHT22;4642;51.364;6.788;2023-07-16T08:22:35;19.60;1.00
9215;DHT22;4642;51.364;6.788;2023-07-16T08:25:01;19.60;1.00
9215;DHT22;4642;51.364;6.788;2023-07-16T08:27:29;19.50;1.00
9215;DHT22;4642;51.364;6.788;2023-07-16T08:29:54;19.70;1.00
9215;DHT22;4642;51.364;6.788;2023-07-16T08:32:20;19.80;1.00
9215;DHT22;4642;51.364;6.788;2023-07-16T08:34:46;19.90;1.00
9215;DHT22;4642;51.364;6.788;2023-07-16T08:37:12;19.90;1.00
9215;DHT22;4642;51.364;6.788;2023-07-16T08:39:38;20.00;99.90
9215;DHT22;4642;51.364;6.788;2023-07-16T08:42:04;20.00;1.00
9215;DHT22;4642;51.364;6.788;2023-07-16T08:44:30;20.00;1.00
9215;DHT22;4642;51.364;6.788;2023-07-16T08:46:56;20.00;1.00
9215;DHT22;4642;51.364;6.788;2023-07-16T08:49:22;20.10;1.00
9215;DHT22;4642;51.364;6.788;2023-07-16T08:51:48;20.10;1.00
9215;DHT22;4642;51.364;6.788;2023-07-16T08:54:14;20.10;99.90
9215;DHT22;4642;51.364;6.788;2023-07-16T08:56:46;20.30;99.90
9215;DHT22;4642;51.364;6.788;2023-07-16T08:59:14;20.20;99.90
9215;DHT22;4642;51.364;6.788;2023-07-16T09:01:39;20.00;99.90
9215;DHT22;4642;51.364;6.788;2023-07-16T09:04:05;20.30;99.90
9215;DHT22;4642;51.364;6.788;2023-07-16T09:06:31;20.30;99.90
9215;DHT22;4642;51.364;6.788;2023-07-16T09:08:56;20.40;99.90
9215;DHT22;4642;51.364;6.788;2023-07-16T09:11:22;20.60;99.90
9215;DHT22;4642;51.364;6.788;2023-07-16T09:13:48;20.70;99.90
9215;DHT22;4642;51.364;6.788;2023-07-16T09:16:14;20.70;99.90
9215;DHT22;4642;51.364;6.788;2023-07-16T09:18:42;20.90;99.90
9215;DHT22;4642;51.364;6.788;2023-07-16T09:21:08;21.10;99.90
9215;DHT22;4642;51.364;6.788;2023-07-16T09:23:34;21.20;99.90
9215;DHT22;4642;51.364;6.788;2023-07-16T09:26:00;21.20;99.90
9215;DHT22;4642;51.364;6.788;2023-07-16T09:28:25;21.30;99.90
9215;DHT22;4642;51.364;6.788;2023-07-16T09:30:52;21.40;99.90
9215;DHT22;4642;51.364;6.788;2023-07-16T09:33:19;21.30;99.90
9215;DHT22;4642;51.364;6.788;2023-07-16T09:35:49;21.10;99.90
9215;DHT22;4642;51.364;6.788;2023-07-16T09:38:15;21.40;99.90
9215;DHT22;4642;51.364;6.788;2023-07-16T09:40:41;21.50;99.90
9215;DHT22;4642;51.364;6.788;2023-07-16T09:43:08;21.40;99.90
9215;DHT22;4642;51.364;6.788;2023-07-16T09:45:34;21.50;99.90
9215;DHT22;4642;51.364;6.788;2023-07-16T09:48:00;21.60;99.90
9215;DHT22;4642;51.364;6.788;2023-07-16T09:50:28;21.70;99.90
9215;DHT22;4642;51.364;6.788;2023-07-16T09:52:56;21.70;99.90
9215;DHT22;4642;51.364;6.788;2023-07-16T09:55:23;21.80;88.20
9215;DHT22;4642;51.364;6.788;2023-07-16T09:57:51;21.60;99.90
9215;DHT22;4642;51.364;6.788;2023-07-16T10:00:18;21.50;99.90
9215;DHT22;4642;51.364;6.788;2023-07-16T10:02:45;21.60;99.90
9215;DHT22;4642;51.364;6.788;2023-07-16T10:05:35;21.60;99.90
9215;DHT22;4642;51.364;6.788;2023-07-16T10:08:00;21.70;1.00
9215;DHT22;4642;51.364;6.788;2023-07-16T10:10:37;21.70;29.40
9215;DHT22;4642;51.364;6.788;2023-07-16T10:13:04;21.60;99.90
9215;DHT22;4642;51.364;6.788;2023-07-16T10:15:30;21.60;99.90
9215;DHT22;4642;51.364;6.788;2023-07-16T10:17:56;21.50;99.90
9215;DHT22;4642;51.364;6.788;2023-07-16T10:20:33;21.70;99.90
9215;DHT22;4642;51.364;6.788;2023-07-16T10:23:13;21.90;92.80
9215;DHT22;4642;51.364;6.788;2023-07-16T10:25:40;21.80;99.90
9215;DHT22;4642;51.364;6.788;2023-07-16T10:28:06;21.90;81.80
9215;DHT22;4642;51.364;6.788;2023-07-16T10:30:33;21.90;99.90
9215;DHT22;4642;51.364;6.788;2023-07-16T10:33:02;22.00;99.90
9215;DHT22;4642;51.364;6.788;2023-07-16T10:35:27;22.00;99.90
9215;DHT22;4642;51.364;6.788;2023-07-16T10:37:54;22.20;66.50
9215;DHT22;4642;51.364;6.788;2023-07-16T10:40:20;22.10;99.90
9215;DHT22;4642;51.364;6.788;2023-07-16T10:42:45;22.20;99.90
9215;DHT22;4642;51.364;6.788;2023-07-16T10:45:14;22.20;1.00
9215;DHT22;4642;51.364;6.788;2023-07-16T10:47:54;22.20;74.10
9215;DHT22;4642;51.364;6.788;2023-07-16T10:50:20;22.20;1.00
9215;DHT22;4642;51.364;6.788;2023-07-16T10:52:56;22.10;1.00
9215;DHT22;4642;51.364;6.788;2023-07-16T10:55:22;22.10;32.90
9215;DHT22;4642;51.364;6.788;2023-07-16T10:57:49;22.20;11.50
9215;DHT22;4642;51.364;6.788;2023-07-16T11:00:15;22.00;1.00
9215;DHT22;4642;51.364;6.788;2023-07-16T11:02:42;22.10;1.00
9215;DHT22;4642;51.364;6.788;2023-07-16T11:05:12;21.90;1.00
9215;DHT22;4642;51.364;6.788;2023-07-16T11:07:48;22.00;1.00
9215;DHT22;4642;51.364;6.788;2023-07-16T11:10:18;22.00;1.00
9215;DHT22;4642;51.364;6.788;2023-07-16T11:12:44;22.10;1.00
9215;DHT22;4642;51.364;6.788;2023-07-16T11:15:10;22.20;1.00
9215;DHT22;4642;51.364;6.788;2023-07-16T11:17:39;22.10;1.00
9215;DHT22;4642;51.364;6.788;2023-07-16T11:20:07;22.30;25.60
9215;DHT22;4642;51.364;6.788;2023-07-16T11:22:38;22.20;1.00
9215;DHT22;4642;51.364;6.788;2023-07-16T11:25:11;22.10;1.00
9215;DHT22;4642;51.364;6.788;2023-07-16T11:27:36;22.30;1.00
9215;DHT22;4642;51.364;6.788;2023-07-16T11:30:05;22.10;1.00
9215;DHT22;4642;51.364;6.788;2023-07-16T11:32:42;22.10;1.00
9215;DHT22;4642;51.364;6.788;2023-07-16T11:35:10;22.40;2.90
9215;DHT22;4642;51.364;6.788;2023-07-16T11:37:36;22.20;15.70
9215;DHT22;4642;51.364;6.788;2023-07-16T11:42:33;22.20;1.00
9215;DHT22;4642;51.364;6.788;2023-07-16T11:44:59;22.10;1.00
9215;DHT22;4642;51.364;6.788;2023-07-16T11:47:26;22.10;1.00
9215;DHT22;4642;51.364;6.788;2023-07-16T11:49:52;22.20;1.00
9215;DHT22;4642;51.364;6.788;2023-07-16T11:52:28;22.30;1.00
9215;DHT22;4642;51.364;6.788;2023-07-16T11:54:57;22.50;1.00
9215;DHT22;4642;51.364;6.788;2023-07-16T11:57:24;22.60;1.00
9215;DHT22;4642;51.364;6.788;2023-07-16T11:59:50;23.10;1.00
9215;DHT22;4642;51.364;6.788;2023-07-16T12:02:16;22.80;1.00
9215;DHT22;4642;51.364;6.788;2023-07-16T12:04:41;22.60;1.00
9215;DHT22;4642;51.364;6.788;2023-07-16T12:07:07;22.70;1.00
9215;DHT22;4642;51.364;6.788;2023-07-16T12:09:33;22.60;1.00
9215;DHT22;4642;51.364;6.788;2023-07-16T12:11:59;22.60;1.00
9215;DHT22;4642;51.364;6.788;2023-07-16T12:14:26;22.80;1.00
9215;DHT22;4642;51.364;6.788;2023-07-16T12:16:51;22.50;1.00
9215;DHT22;4642;51.364;6.788;2023-07-16T12:19:17;22.50;1.00
9215;DHT22;4642;51.364;6.788;2023-07-16T12:21:42;22.50;1.00
9215;DHT22;4642;51.364;6.788;2023-07-16T12:24:08;22.50;1.00
9215;DHT22;4642;51.364;6.788;2023-07-16T12:26:34;22.70;1.00
9215;DHT22;4642;51.364;6.788;2023-07-16T12:29:00;22.50;1.00
9215;DHT22;4642;51.364;6.788;2023-07-16T12:31:28;22.60;1.00
9215;DHT22;4642;51.364;6.788;2023-07-16T12:33:54;22.70;1.00
9215;DHT22;4642;51.364;6.788;2023-07-16T12:36:19;22.60;1.00
9215;DHT22;4642;51.364;6.788;2023-07-16T12:38:45;22.50;1.00
9215;DHT22;4642;51.364;6.788;2023-07-16T12:41:10;22.70;1.00
9215;DHT22;4642;51.364;6.788;2023-07-16T12:43:36;22.50;1.00
9215;DHT22;4642;51.364;6.788;2023-07-16T12:46:02;22.70;1.00
9215;DHT22;4642;51.364;6.788;2023-07-16T12:48:31;22.60;1.00
9215;DHT22;4642;51.364;6.788;2023-07-16T12:50:56;22.80;1.00
9215;DHT22;4642;51.364;6.788;2023-07-16T12:53:23;22.70;1.00
9215;DHT22;4642;51.364;6.788;2023-07-16T12:55:49;22.70;1.00
9215;DHT22;4642;51.364;6.788;2023-07-16T12:58:14;22.80;1.00
9215;DHT22;4642;51.364;6.788;2023-07-16T13:00:40;22.90;1.00
9215;DHT22;4642;51.364;6.788;2023-07-16T13:03:06;22.80;1.00
9215;DHT22;4642;51.364;6.788;2023-07-16T13:05:34;23.00;1.00
9215;DHT22;4642;51.364;6.788;2023-07-16T13:07:59;23.10;1.00
9215;DHT22;4642;51.364;6.788;2023-07-16T13:10:25;23.20;1.00
9215;DHT22;4642;51.364;6.788;2023-07-16T13:12:50;23.10;1.00
9215;DHT22;4642;51.364;6.788;2023-07-16T13:15:16;23.00;1.00
9215;DHT22;4642;51.364;6.788;2023-07-16T13:17:42;23.20;1.00
9215;DHT22;4642;51.364;6.788;2023-07-16T13:20:07;23.30;1.00
9215;DHT22;4642;51.364;6.788;2023-07-16T13:22:35;23.20;1.00
9215;DHT22;4642;51.364;6.788;2023-07-16T13:25:00;23.30;1.00
9215;DHT22;4642;51.364;6.788;2023-07-16T13:27:26;23.20;1.00
9215;DHT22;4642;51.364;6.788;2023-07-16T13:29:51;23.00;1.00
9215;DHT22;4642;51.364;6.788;2023-07-16T13:32:17;22.90;1.00
9215;DHT22;4642;51.364;6.788;2023-07-16T13:34:42;23.00;1.00
9215;DHT22;4642;51.364;6.788;2023-07-16T13:37:09;23.40;1.00
9215;DHT22;4642;51.364;6.788;2023-07-16T13:39:34;23.20;1.00
9215;DHT22;4642;51.364;6.788;2023-07-16T13:42:00;23.10;1.00
9215;DHT22;4642;51.364;6.788;2023-07-16T13:44:25;23.20;1.00
9215;DHT22;4642;51.364;6.788;2023-07-16T13:46:51;23.10;1.00
9215;DHT22;4642;51.364;6.788;2023-07-16T13:49:16;23.20;1.00
9215;DHT22;4642;51.364;6.788;2023-07-16T13:51:42;23.50;1.00
9215;DHT22;4642;51.364;6.788;2023-07-16T13:54:09;23.60;1.00
9215;DHT22;4642;51.364;6.788;2023-07-16T13:56:35;23.70;1.00
9215;DHT22;4642;51.364;6.788;2023-07-16T13:59:00;23.70;1.00
9215;DHT22;4642;51.364;6.788;2023-07-16T14:01:26;24.00;1.00
9215;DHT22;4642;51.364;6.788;2023-07-16T14:03:51;24.20;1.00
9215;DHT22;4642;51.364;6.788;2023-07-16T14:06:18;24.20;1.00
9215;DHT22;4642;51.364;6.788;2023-07-16T14:08:43;24.20;1.00
9215;DHT22;4642;51.364;6.788;2023-07-16T14:11:09;24.00;1.00
9215;DHT22;4642;51.364;6.788;2023-07-16T14:13:34;24.00;1.00
9215;DHT22;4642;51.364;6.788;2023-07-16T14:16:00;23.80;1.00
9215;DHT22;4642;51.364;6.788;2023-07-16T14:18:25;24.00;1.00
9215;DHT22;4642;51.364;6.788;2023-07-16T14:20:51;23.70;1.00
9215;DHT22;4642;51.364;6.788;2023-07-16T14:23:16;23.70;1.00
9215;DHT22;4642;51.364;6.788;2023-07-16T14:25:42;23.80;1.00
9215;DHT22;4642;51.364;6.788;2023-07-16T14:28:08;24.00;1.00
9215;DHT22;4642;51.364;6.788;2023-07-16T14:30:33;24.20;1.00
9215;DHT22;4642;51.364;6.788;2023-07-16T14:32:59;24.20;1.00
9215;DHT22;4642;51.364;6.788;2023-07-16T14:35:25;24.50;1.00
9215;DHT22;4642;51.364;6.788;2023-07-16T14:37:50;24.70;1.00
9215;DHT22;4642;51.364;6.788;2023-07-16T14:40:16;24.50;1.00
9215;DHT22;4642;51.364;6.788;2023-07-16T14:42:43;24.40;1.00
9215;DHT22;4642;51.364;6.788;2023-07-16T14:45:09;24.30;1.00
9215;DHT22;4642;51.364;6.788;2023-07-16T14:47:34;24.50;1.00
9215;DHT22;4642;51.364;6.788;2023-07-16T14:50:00;24.40;1.00
9215;DHT22;4642;51.364;6.788;2023-07-16T14:52:25;24.70;1.00
9215;DHT22;4642;51.364;6.788;2023-07-16T14:54:51;24.70;1.00
9215;DHT22;4642;51.364;6.788;2023-07-16T14:57:17;24.60;1.00
9215;DHT22;4642;51.364;6.788;2023-07-16T14:59:42;24.50;1.00
9215;DHT22;4642;51.364;6.788;2023-07-16T15:02:09;24.60;1.00
9215;DHT22;4642;51.364;6.788;2023-07-16T15:04:34;24.50;1.00
9215;DHT22;4642;51.364;6.788;2023-07-16T15:07:00;24.40;1.00
9215;DHT22;4642;51.364;6.788;2023-07-16T15:09:26;24.50;1.00
9215;DHT22;4642;51.364;6.788;2023-07-16T15:11:51;24.20;1.00
9215;DHT22;4642;51.364;6.788;2023-07-16T15:14:17;24.10;1.00
9215;DHT22;4642;51.364;6.788;2023-07-16T15:16:43;24.00;1.00
9215;DHT22;4642;51.364;6.788;2023-07-16T15:19:09;24.10;1.00
9215;DHT22;4642;51.364;6.788;2023-07-16T15:21:35;24.10;1.00
9215;DHT22;4642;51.364;6.788;2023-07-16T15:24:03;24.00;1.00
9215;DHT22;4642;51.364;6.788;2023-07-16T15:26:29;24.00;1.00
9215;DHT22;4642;51.364;6.788;2023-07-16T15:28:55;24.00;1.00
9215;DHT22;4642;51.364;6.788;2023-07-16T15:31:20;24.00;1.00
9215;DHT22;4642;51.364;6.788;2023-07-16T15:36:26;24.20;1.00
9215;DHT22;4642;51.364;6.788;2023-07-16T15:38:52;24.30;1.00
9215;DHT22;4642;51.364;6.788;2023-07-16T15:41:18;24.40;1.00
9215;DHT22;4642;51.364;6.788;2023-07-16T15:43:45;24.50;1.00
9215;DHT22;4642;51.364;6.788;2023-07-16T15:46:15;24.70;1.00
9215;DHT22;4642;51.364;6.788;2023-07-16T15:48:41;24.50;1.00
9215;DHT22;4642;51.364;6.788;2023-07-16T15:51:07;24.50;1.00
9215;DHT22;4642;51.364;6.788;2023-07-16T15:53:34;24.40;1.00
9215;DHT22;4642;51.364;6.788;2023-07-16T15:55:59;24.20;1.00
9215;DHT22;4642;51.364;6.788;2023-07-16T15:58:25;24.00;1.00
9215;DHT22;4642;51.364;6.788;2023-07-16T16:00:50;24.00;1.00
9215;DHT22;4642;51.364;6.788;2023-07-16T16:03:16;23.90;1.00
9215;DHT22;4642;51.364;6.788;2023-07-16T16:05:42;23.90;1.00
9215;DHT22;4642;51.364;6.788;2023-07-16T16:08:13;23.80;1.00
9215;DHT22;4642;51.364;6.788;2023-07-16T16:10:39;23.80;1.00